Time;durP1;ratioP1;P1;durP2;ratioP2;P2;SDS_P1;SDS_P2;PMS_P1;PMS_P2;Temp;Humidity;BMP_temperature;BMP_pressure;BME280_temperature;BME280_humidity;BME280_pressure;Samples;Min_cycle;Max_cycle;Signal;HPM_P1;HPM_P2
2021/10/02 00:46:53;;;;;;;;;;;;;;;;;;4976238;28;19973;-43
2021/10/02 00:49:18;;;;;;;;;;;;;;;22.36;nan;101006.97;4975639;28;19918;-42
2021/10/02 00:51:44;;;;;;;;;;;;;;;22.38;nan;101006.81;4974070;28;19925;-43
2021/10/02 00:54:10;;;;;;;;;;;;;;;;;;4957700;29;19914;-42
2021/10/02 00:56:35;;;;;;;;;;;;;;;22.38;nan;101006.81;4969327;28;19928;-43
2021/10/02 00:59:00;;;;;;;;;;;;;;;22.36;nan;100996.13;4992384;28;19922;-43
2021/10/02 01:01:36;;;;;;;;;;;;;;;22.37;nan;100994.28;4957441;29;19921;-43
2021/10/02 01:04:02;;;;;;;;;;;;;;;22.35;nan;100994.38;4966951;28;19918;-41
2021/10/02 01:06:27;;;;;;;;;;;;;;;;;;4994321;28;19937;-41
2021/10/02 01:08:52;;;;;;;;;;;;;;;;;;5037480;28;20000;-42
2021/10/02 01:11:17;;;;;;;;;;;;;;;;;;5019296;28;19913;-42
2021/10/02 01:13:42;;;;;;;;;;;;;;;;;;5038106;28;20311;-44
2021/10/02 01:16:08;;;;;;;;;;;;;;;;;;5019608;28;19917;-41
2021/10/02 01:18:33;;;;;;;;;;;;;;;;;;5037884;28;19921;-43
2021/10/02 01:20:58;;;;;;;;;;;;;;;;;;5035738;28;20008;-45
2021/10/02 01:23:27;;;;;;;;;;;;;;;22.33;nan;100981.97;5037595;28;19923;-45
2021/10/02 01:26:04;;;;;;;;;;;;;;;22.33;nan;100985.56;5037959;28;19917;-42
2021/10/02 01:28:33;;;;;;;;;;;;;;;22.33;nan;100982.84;5038005;28;20086;-42
2021/10/02 01:33:39;;;;;;;;;;;;;;;22.33;nan;100987.41;5018230;28;19996;-43
2021/10/02 01:36:25;;;;;;;;;;;;;;;22.32;nan;100989.25;5017980;28;19920;-41
2021/10/02 01:47:16;;;;;;;;;;;;;;;;;;5037322;28;19920;-42
2021/10/02 01:49:41;;;;;;;;;;;;;;;;;;5031687;28;20000;-41
2021/10/02 01:52:06;;;;;;;;;;;;;;;;;;5016868;28;20008;-42
2021/10/02 01:54:31;;;;;;;;;;;;;;;;;;5034437;28;19917;-44
2021/10/02 01:56:57;;;;;;;;;;;;;;;22.29;nan;100981.38;5034304;28;19961;-43
2021/10/02 01:59:22;;;;;;;;;;;;;;;;;;5033631;28;19924;-42
2021/10/02 02:01:48;;;;;;;;;;;;;;;22.29;nan;100975.97;5034509;28;19917;-43
2021/10/02 02:04:14;;;;;;;;;;;;;;;;;;5034350;28;19917;-45
2021/10/02 02:06:39;;;;;;;;;;;;;;;;;;5034353;28;19917;-44
2021/10/02 02:09:04;;;;;;;;;;;;;;;;;;5034047;28;19917;-42
2021/10/02 02:11:29;;;;;;;;;;;;;;;;;;5015419;28;19971;-42
2021/10/02 02:13:54;;;;;;;;;;;;;;;;;;5033234;28;19913;-41
2021/10/02 02:16:20;;;;;;;;;;;;;;;22.27;nan;100982.50;5034077;28;19917;-43
2021/10/02 02:18:47;;;;;;;;;;;;;;;22.26;nan;100968.09;5033579;28;20012;-41
2021/10/02 02:21:13;;;;;;;;;;;;;;;22.27;nan;100971.66;5034231;28;20003;-43
2021/10/02 02:23:40;;;;;;;;;;;;;;;22.26;nan;100964.53;5033972;28;19971;-44
2021/10/02 02:26:07;;;;;;;;;;;;;;;22.26;nan;100965.41;5033940;28;19917;-42
2021/10/02 02:28:35;;;;;;;;;;;;;;;22.25;nan;100966.38;5033229;28;19917;-47
2021/10/02 02:31:00;;;;;;;;;;;;;;;22.25;nan;100960.97;5033958;28;19914;-43
2021/10/02 02:33:25;;;;;;;;;;;;;;;;;;5033793;28;19913;-41
2021/10/02 02:35:58;;;;;;;;;;;;;;;22.24;nan;100951.13;5033289;28;19928;-41
2021/10/02 02:38:23;;;;;;;;;;;;;;;;;;5032777;28;19925;-41
2021/10/02 02:40:50;;;;;;;;;;;;;;;;;;5033462;28;19978;-44
2021/10/02 02:43:15;;;;;;;;;;;;;;;;;;5033663;28;19920;-42
2021/10/02 02:45:40;;;;;;;;;;;;;;;;;;5033616;28;19913;-43
2021/10/02 02:48:10;;;;;;;;;;;;;;;22.22;nan;100950.41;5032553;28;20303;-44
2021/10/02 02:50:35;;;;;;;;;;;;;;;;;;5033066;28;20367;-42
2021/10/02 02:53:01;;;;;;;;;;;;;;;;;;5033009;28;19917;-43
2021/10/02 02:55:26;;;;;;;;;;;;;;;;;;5033339;28;19917;-43
2021/10/02 02:57:51;;;;;;;;;;;;;;;;;;5032454;28;20420;-41
2021/10/02 03:00:17;;;;;;;;;;;;;;;;;;5033228;28;19928;-42
2021/10/02 03:02:42;;;;;;;;;;;;;;;;;;5033139;28;19920;-41
2021/10/02 03:05:07;;;;;;;;;;;;;;;;;;5014528;28;19918;-42
2021/10/02 03:07:32;;;;;;;;;;;;;;;;;;5015071;28;20367;-43
2021/10/02 03:09:57;;;;;;;;;;;;;;;;;;5033299;28;19917;-43
2021/10/02 03:12:23;;;;;;;;;;;;;;;;;;5033191;28;20004;-42
2021/10/02 03:14:48;;;;;;;;;;;;;;;;;;5031474;28;19935;-42
2021/10/02 03:17:14;;;;;;;;;;;;;;;22.18;nan;100929.13;5032743;28;19917;-42
2021/10/02 03:19:40;;;;;;;;;;;;;;;;;;5033002;28;20067;-42
2021/10/02 03:22:07;;;;;;;;;;;;;;;;;;5032863;28;19991;-42
2021/10/02 03:24:32;;;;;;;;;;;;;;;;;;5026792;28;20358;-42
2021/10/02 03:27:02;;;;;;;;;;;;;;;22.16;nan;100915.72;5032467;28;20032;-42
2021/10/02 03:29:27;;;;;;;;;;;;;;;;;;5032841;28;19958;-43
2021/10/02 03:31:52;;;;;;;;;;;;;;;;;;5032807;28;20313;-42
2021/10/02 03:34:18;;;;;;;;;;;;;;;22.16;nan;100909.44;5032492;28;20012;-41
2021/10/02 03:36:44;;;;;;;;;;;;;;;22.16;nan;100909.44;5032822;28;19983;-42
2021/10/02 03:39:09;;;;;;;;;;;;;;;;;;5031249;28;20367;-41
2021/10/02 03:41:35;;;;;;;;;;;;;;;22.15;nan;100905.88;5032510;28;19917;-43
2021/10/02 03:44:02;;;;;;;;;;;;;;;;;;5014177;28;19917;-43
2021/10/02 03:46:27;;;;;;;;;;;;;;;;;;5032484;28;20387;-41
2021/10/02 03:48:52;;;;;;;;;;;;;;;;;;5032250;28;19967;-41
2021/10/02 03:51:18;;;;;;;;;;;;;;;22.13;nan;100903.31;5032248;28;19927;-44
2021/10/02 03:53:43;;;;;;;;;;;;;;;22.13;nan;100907.81;5031569;28;19917;-42
2021/10/02 03:56:09;;;;;;;;;;;;;;;;;;5032642;28;19913;-41
2021/10/02 03:58:34;;;;;;;;;;;;;;;22.12;nan;100904.25;5031794;28;19932;-42
2021/10/02 04:00:59;;;;;;;;;;;;;;;;;;5031822;28;20012;-42
2021/10/02 04:03:25;;;;;;;;;;;;;;;22.12;nan;100911.53;5030108;28;19925;-43
2021/10/02 04:05:50;;;;;;;;;;;;;;;;;;5012281;28;19913;-41
2021/10/02 04:08:15;;;;;;;;;;;;;;;;;;5017854;28;19920;-41
2021/10/02 04:10:47;;;;;;;;;;;;;;;22.11;nan;100904.41;5032101;28;20498;-41
2021/10/02 04:13:12;;;;;;;;;;;;;;;22.10;nan;100905.41;5031570;28;20379;-42
2021/10/02 04:15:37;;;;;;;;;;;;;;;;;;5020298;28;19928;-42
2021/10/02 04:18:03;;;;;;;;;;;;;;;;;;5031892;28;20295;-42
2021/10/02 04:20:28;;;;;;;;;;;;;;;;;;5014146;28;19917;-41
2021/10/02 04:22:53;;;;;;;;;;;;;;;;;;5031738;28;19924;-43
2021/10/02 04:25:18;;;;;;;;;;;;;;;;;;5030717;28;20291;-42
2021/10/02 04:27:43;;;;;;;;;;;;;;;;;;5031875;28;19913;-42
2021/10/02 04:30:09;;;;;;;;;;;;;;;;;;5031675;28;19959;-41
2021/10/02 04:32:34;;;;;;;;;;;;;;;22.07;nan;100901.09;5031251;28;19921;-42
2021/10/02 04:34:59;;;;;;;;;;;;;;;;;;5031133;28;19925;-42
2021/10/02 04:37:24;;;;;;;;;;;;;;;;;;5030086;28;19959;-43
2021/10/02 04:39:50;;;;;;;;;;;;;;;;;;5011876;28;19940;-43
2021/10/02 04:42:15;;;;;;;;;;;;;;;22.07;nan;100905.66;5011960;28;19996;-44
2021/10/02 04:44:40;;;;;;;;;;;;;;;22.07;nan;100906.50;5023256;28;19924;-43
2021/10/02 04:47:06;;;;;;;;;;;;;;;;;;5031703;28;19967;-42
2021/10/02 04:49:31;;;;;;;;;;;;;;;;;;5030493;28;19909;-43
2021/10/02 04:51:56;;;;;;;;;;;;;;;;;;5015980;28;20272;-42
2021/10/02 04:54:21;;;;;;;;;;;;;;;;;;5030975;28;19917;-41
2021/10/02 04:56:46;;;;;;;;;;;;;;;22.05;nan;100913.88;5031407;28;19921;-43
2021/10/02 04:59:12;;;;;;;;;;;;;;;;;;5031609;28;19917;-43
2021/10/02 05:01:38;;;;;;;;;;;;;;;;;;5031274;28;19921;-43
2021/10/02 05:04:03;;;;;;;;;;;;;;;;;;5031034;28;19917;-42
2021/10/02 05:06:28;;;;;;;;;;;;;;;;;;5031409;28;20454;-43
2021/10/02 05:08:54;;;;;;;;;;;;;;;22.02;nan;100914.16;5028494;28;19968;-42
2021/10/02 05:11:19;;;;;;;;;;;;;;;22.02;nan;100916.03;5011756;28;19959;-42
2021/10/02 05:13:45;;;;;;;;;;;;;;;;;;5014138;28;20008;-42
2021/10/02 05:16:10;;;;;;;;;;;;;;;;;;5031254;28;19951;-43
2021/10/02 05:18:35;;;;;;;;;;;;;;;;;;5031099;28;19952;-43
2021/10/02 05:21:00;;;;;;;;;;;;;;;;;;5031439;28;20000;-43
2021/10/02 05:23:25;;;;;;;;;;;;;;;22.01;nan;100927.81;5031104;28;19921;-41
2021/10/02 05:25:53;;;;;;;;;;;;;;;;;;5030219;28;20342;-43
2021/10/02 05:28:19;;;;;;;;;;;;;;;;;;5016163;28;19921;-43
2021/10/02 05:30:44;;;;;;;;;;;;;;;21.97;nan;100916.38;5034511;28;19917;-41
2021/10/02 05:33:09;;;;;;;;;;;;;;;;;;5035046;28;20410;-44
2021/10/02 05:35:36;;;;;;;;;;;;;;;21.96;nan;100914.69;5029573;28;19924;-44
2021/10/02 05:38:02;;;;;;;;;;;;;;;21.99;nan;100916.28;5030352;28;19922;-42
2021/10/02 05:40:27;;;;;;;;;;;;;;;;;;5013771;28;19918;-44
2021/10/02 05:42:52;;;;;;;;;;;;;;;21.98;nan;100917.25;5030296;28;19920;-41
2021/10/02 05:45:17;;;;;;;;;;;;;;;21.96;nan;100911.13;5029232;28;20709;-41
2021/10/02 05:47:43;;;;;;;;;;;;;;;21.96;nan;100911.13;5029265;28;19917;-43
2021/10/02 05:50:08;;;;;;;;;;;;;;;;;;5014966;28;19952;-42
2021/10/02 05:52:33;;;;;;;;;;;;;;;;;;5023337;28;19917;-43
2021/10/02 05:54:58;;;;;;;;;;;;;;;;;;5034370;28;19917;-42
2021/10/02 05:57:23;;;;;;;;;;;;;;;;;;5034186;28;20376;-43
2021/10/02 05:59:49;;;;;;;;;;;;;;;21.95;nan;100928.34;5033849;28;20023;-41
2021/10/02 06:02:15;;;;;;;;;;;;;;;21.94;nan;100922.09;5029392;28;19928;-43
2021/10/02 06:04:40;;;;;;;;;;;;;;;;;;5014839;28;20454;-43
2021/10/02 06:07:05;;;;;;;;;;;;;;;;;;5025661;28;20000;-43
2021/10/02 06:09:30;;;;;;;;;;;;;;;;;;5034329;28;19913;-42
2021/10/02 06:11:56;;;;;;;;;;;;;;;21.94;nan;100915.78;5019561;28;19991;-43
2021/10/02 06:14:21;;;;;;;;;;;;;;;;;;5014311;28;20418;-43
2021/10/02 06:16:46;;;;;;;;;;;;;;;21.91;nan;100908.81;5028670;28;20299;-45
2021/10/02 06:19:12;;;;;;;;;;;;;;;21.91;nan;100911.50;5033867;28;20003;-44
2021/10/02 06:21:37;;;;;;;;;;;;;;;21.90;nan;100916.06;5032664;28;19917;-43
2021/10/02 06:24:02;;;;;;;;;;;;;;;;;;5030104;28;20116;-45
2021/10/02 06:26:28;;;;;;;;;;;;;;;;;;5033316;28;19921;-43
2021/10/02 06:28:53;;;;;;;;;;;;;;;;;;5020790;28;19913;-44
2021/10/02 06:31:18;;;;;;;;;;;;;;;;;;5023425;28;19917;-42
2021/10/02 06:33:43;;;;;;;;;;;;;;;21.87;nan;100921.75;5030619;28;19959;-46
2021/10/02 06:36:08;;;;;;;;;;;;;;;;;;5031816;28;19941;-44
2021/10/02 06:38:34;;;;;;;;;;;;;;;21.88;nan;100918.03;5032786;28;19917;-45
2021/10/02 06:40:59;;;;;;;;;;;;;;;21.87;nan;100927.16;5025386;28;20269;-45
2021/10/02 06:43:25;;;;;;;;;;;;;;;;;;5029983;28;19957;-42
2021/10/02 06:45:50;;;;;;;;;;;;;;;21.87;nan;100929.84;5032741;28;19921;-42
2021/10/02 06:48:15;;;;;;;;;;;;;;;;;;5015210;28;19917;-45
2021/10/02 06:50:40;;;;;;;;;;;;;;;;;;5032729;28;19978;-44
2021/10/02 06:53:06;;;;;;;;;;;;;;;;;;5029820;28;19924;-44
2021/10/02 06:55:31;;;;;;;;;;;;;;;21.84;nan;100927.41;5031598;28;19965;-47
2021/10/02 06:57:56;;;;;;;;;;;;;;;;;;5032626;28;19928;-43
2021/10/02 07:00:22;;;;;;;;;;;;;;;21.76;nan;100937.16;5015056;28;19921;-42
2021/10/02 07:02:47;;;;;;;;;;;;;;;;;;5032180;28;19948;-46
2021/10/02 07:05:12;;;;;;;;;;;;;;;;;;5032845;28;19917;-43
2021/10/02 07:07:37;;;;;;;;;;;;;;;;;;5033156;28;19913;-44
2021/10/02 07:10:04;;;;;;;;;;;;;;;21.43;nan;100936.25;5021419;28;19999;-42
2021/10/02 07:12:29;;;;;;;;;;;;;;;21.36;nan;100932.31;5032333;28;19947;-43
2021/10/02 07:14:54;;;;;;;;;;;;;;;;;;5032349;28;20371;-42
2021/10/02 07:17:19;;;;;;;;;;;;;;;;;;5026766;28;19917;-43
2021/10/02 07:19:45;;;;;;;;;;;;;;;21.28;nan;100943.75;5026387;28;19940;-43
2021/10/02 07:22:10;;;;;;;;;;;;;;;;;;5028021;28;20013;-44
2021/10/02 07:24:35;;;;;;;;;;;;;;;;;;5032249;28;19917;-42
2021/10/02 07:27:01;;;;;;;;;;;;;;;21.30;nan;100930.13;5032607;28;19936;-42
2021/10/02 07:29:26;;;;;;;;;;;;;;;;;;5032017;28;19913;-45
2021/10/02 07:31:51;;;;;;;;;;;;;;;;;;5031165;28;19929;-42
2021/10/02 07:34:17;;;;;;;;;;;;;;;21.39;nan;100938.34;5023806;28;19921;-42
2021/10/02 07:36:42;;;;;;;;;;;;;;;;;;5020983;28;19917;-42
2021/10/02 07:39:07;;;;;;;;;;;;;;;21.48;nan;100928.59;5030806;28;19920;-45
2021/10/02 07:41:37;;;;;;;;;;;;;;;21.50;nan;100925.78;5030387;28;20015;-42
2021/10/02 07:44:02;;;;;;;;;;;;;;;;;;5019299;28;20020;-44
2021/10/02 07:46:27;;;;;;;;;;;;;;;;;;5028977;28;20050;-42
2021/10/02 07:48:53;;;;;;;;;;;;;;;21.65;nan;100921.81;5019061;28;19984;-45
2021/10/02 07:51:19;;;;;;;;;;;;;;;;;;5027535;28;20008;-44
2021/10/02 07:53:44;;;;;;;;;;;;;;;;;;5026281;28;20000;-42
2021/10/02 07:56:09;;;;;;;;;;;;;;;;;;5008881;28;19924;-43
2021/10/02 07:58:34;;;;;;;;;;;;;;;;;;5031685;28;19928;-43
2021/10/02 08:00:59;;;;;;;;;;;;;;;;;;5011821;28;20334;-43
2021/10/02 08:03:24;;;;;;;;;;;;;;;;;;5031506;28;19917;-43
2021/10/02 08:05:50;;;;;;;;;;;;;;;;;;5031117;28;19923;-42
2021/10/02 08:08:16;;;;;;;;;;;;;;;;;;5027710;28;19925;-45
2021/10/02 08:10:41;;;;;;;;;;;;;;;;;;5026326;28;19921;-44
2021/10/02 08:13:06;;;;;;;;;;;;;;;;;;5031450;28;19968;-44
2021/10/02 08:15:32;;;;;;;;;;;;;;;22.07;nan;100901.09;5030903;28;20314;-45
2021/10/02 08:17:57;;;;;;;;;;;;;;;;;;5029880;28;20354;-46
2021/10/02 08:20:22;;;;;;;;;;;;;;;;;;5019825;28;19922;-43
2021/10/02 08:22:47;;;;;;;;;;;;;;;;;;5023606;28;19924;-47
2021/10/02 08:25:14;;;;;;;;;;;;;;;22.13;nan;100915.94;5029777;28;19913;-44
2021/10/02 08:27:40;;;;;;;;;;;;;;;22.15;nan;100908.59;5029965;28;19917;-44
2021/10/02 08:30:06;;;;;;;;;;;;;;;;;;5029997;28;19971;-44
2021/10/02 08:32:31;;;;;;;;;;;;;;;;;;5018425;28;19960;-43
2021/10/02 08:34:56;;;;;;;;;;;;;;;;;;5010277;28;19959;-44
2021/10/02 08:37:21;;;;;;;;;;;;;;;22.17;nan;100895.78;5012404;28;20362;-44
2021/10/02 08:39:47;;;;;;;;;;;;;;;22.20;nan;100900.91;5029512;28;20391;-46
2021/10/02 08:42:12;;;;;;;;;;;;;;;22.22;nan;100907.06;5029972;28;20291;-43
2021/10/02 08:44:38;;;;;;;;;;;;;;;22.23;nan;100900.66;5031407;28;19959;-43
2021/10/02 08:47:04;;;;;;;;;;;;;;;22.22;nan;100901.66;5031451;28;19913;-44
2021/10/02 08:49:37;;;;;;;;;;;;;;;22.25;nan;100898.69;5031581;28;19928;-44
2021/10/02 08:52:03;;;;;;;;;;;;;;;22.27;nan;100890.44;5030129;28;20306;-46
2021/10/02 08:54:29;;;;;;;;;;;;;;;22.26;nan;100894.13;5020529;28;19917;-45
2021/10/02 08:56:55;;;;;;;;;;;;;;;;;;5021236;28;20008;-42
2021/10/02 08:59:20;;;;;;;;;;;;;;;;;;5031861;28;20011;-44
2021/10/02 09:01:45;;;;;;;;;;;;;;;;;;5033796;28;19920;-43
2021/10/02 09:04:10;;;;;;;;;;;;;;;;;;5034164;28;20504;-43
2021/10/02 09:06:57;;;;;;;;;;;;;;;22.34;nan;100876.22;5033503;28;20014;-44
2021/10/02 09:09:22;;;;;;;;;;;;;;;;;;5033921;28;19913;-44
2021/10/02 09:11:48;;;;;;;;;;;;;;;22.35;nan;100871.66;5033106;28;19919;-46
2021/10/02 09:14:13;;;;;;;;;;;;;;;;;;5034311;28;19924;-46
2021/10/02 09:16:39;;;;;;;;;;;;;;;22.36;nan;100867.94;5033874;28;19921;-45
2021/10/02 09:19:05;;;;;;;;;;;;;;;;;;5016709;28;19921;-43
2021/10/02 09:21:40;;;;;;;;;;;;;;;22.37;nan;100865.13;5034873;28;19967;-42
2021/10/02 09:24:05;;;;;;;;;;;;;;;;;;5034740;28;19917;-44
2021/10/02 09:26:41;;;;;;;;;;;;;;;22.39;nan;100865.84;5035137;28;19920;-44
2021/10/02 09:29:07;;;;;;;;;;;;;;;22.41;nan;100851.31;5034924;28;19913;-43
2021/10/02 09:31:32;;;;;;;;;;;;;;;22.42;nan;100850.31;5034871;28;19913;-42
2021/10/02 09:33:57;;;;;;;;;;;;;;;;;;5034695;28;19913;-46
2021/10/02 09:36:22;;;;;;;;;;;;;;;;;;5034738;28;19937;-45
2021/10/02 09:38:49;;;;;;;;;;;;;;;22.41;nan;100845.91;5017251;28;19924;-44
2021/10/02 09:41:14;;;;;;;;;;;;;;;;;;5033679;28;19966;-45
2021/10/02 09:43:46;;;;;;;;;;;;;;;22.41;nan;100835.94;5032921;28;19996;-45
2021/10/02 09:46:12;;;;;;;;;;;;;;;22.42;nan;100828.66;5032612;28;19982;-46
2021/10/02 09:48:37;;;;;;;;;;;;;;;22.42;nan;100829.50;5032920;28;20284;-44
2021/10/02 09:51:08;;;;;;;;;;;;;;;22.44;nan;100829.38;5032732;28;20402;-47
2021/10/02 09:53:41;;;;;;;;;;;;;;;22.43;nan;100827.66;5033272;28;19998;-45
2021/10/02 09:56:08;;;;;;;;;;;;;;;22.45;nan;100825.69;5015742;28;20576;-43
2021/10/02 09:58:34;;;;;;;;;;;;;;;22.46;nan;100824.69;5034450;28;19960;-45
2021/10/02 10:01:01;;;;;;;;;;;;;;;22.45;nan;100812.13;5034527;28;20023;-45
2021/10/02 10:03:39;;;;;;;;;;;;;;;22.47;nan;100823.69;4990263;28;20008;-44
2021/10/02 10:06:04;;;;;;;;;;;;;;;;;;5005928;28;19913;-45
2021/10/02 10:08:29;;;;;;;;;;;;;;;;;;5028741;28;19920;-45
2021/10/02 10:11:08;;;;;;;;;;;;;;;22.47;nan;100804.72;5030369;28;20021;-43
2021/10/02 10:13:34;;;;;;;;;;;;;;;22.49;nan;100797.31;5033280;28;19913;-43
2021/10/02 10:15:59;;;;;;;;;;;;;;;;;;5034099;28;20393;-43
2021/10/02 10:18:24;;;;;;;;;;;;;;;;;;5034160;28;19940;-42
2021/10/02 10:20:53;;;;;;;;;;;;;;;;;;5034244;28;19913;-45
2021/10/02 10:23:28;;;;;;;;;;;;;;;22.52;nan;100786.22;5034388;28;20394;-43
2021/10/02 10:25:53;;;;;;;;;;;;;;;;;;5034167;28;19975;-45
2021/10/02 10:28:19;;;;;;;;;;;;;;;;;;5034159;28;19937;-43
2021/10/02 10:30:47;;;;;;;;;;;;;;;;;;5034025;28;19913;-44
2021/10/02 10:33:12;;;;;;;;;;;;;;;22.54;nan;100779.66;5033845;28;19917;-47
2021/10/02 10:35:48;;;;;;;;;;;;;;;22.54;nan;100779.66;5016171;28;20314;-46
2021/10/02 10:38:23;;;;;;;;;;;;;;;22.55;nan;100775.97;5032541;28;19920;-43
2021/10/02 10:40:48;;;;;;;;;;;;;;;;;;5033785;28;19940;-45
2021/10/02 10:43:14;;;;;;;;;;;;;;;;;;5033440;28;20272;-44
2021/10/02 10:45:39;;;;;;;;;;;;;;;;;;5002807;28;19967;-43
2021/10/02 10:48:05;;;;;;;;;;;;;;;;;;5033304;28;19910;-44
2021/10/02 10:50:31;;;;;;;;;;;;;;;;;;5027872;28;20375;-44
2021/10/02 10:52:56;;;;;;;;;;;;;;;;;;5027644;28;19917;-46
2021/10/02 10:55:22;;;;;;;;;;;;;;;22.60;nan;100756.59;5004043;28;19913;-45
2021/10/02 10:57:48;;;;;;;;;;;;;;;;;;5013537;28;19944;-44
2021/10/02 11:00:13;;;;;;;;;;;;;;;;;;5013707;28;20319;-44
2021/10/02 11:02:38;;;;;;;;;;;;;;;;;;5013679;28;20064;-45
2021/10/02 11:05:03;;;;;;;;;;;;;;;22.59;nan;100744.91;5015915;28;19970;-44
2021/10/02 11:07:29;;;;;;;;;;;;;;;;;;5027975;28;19917;-45
2021/10/02 11:09:54;;;;;;;;;;;;;;;;;;5033616;28;19960;-44
2021/10/02 11:12:19;;;;;;;;;;;;;;;;;;5032243;28;20019;-47
2021/10/02 11:14:45;;;;;;;;;;;;;;;;;;5010246;28;19917;-47
2021/10/02 11:17:10;;;;;;;;;;;;;;;;;;5011278;28;19971;-49
2021/10/02 11:19:35;;;;;;;;;;;;;;;;;;5019214;28;19921;-44
2021/10/02 11:22:00;;;;;;;;;;;;;;;;;;5023398;28;19918;-46
2021/10/02 11:24:25;;;;;;;;;;;;;;;;;;4989468;28;19940;-49
2021/10/02 11:26:57;;;;;;;;;;;;;;;22.68;nan;100718.81;5012229;28;19917;-46
2021/10/02 11:29:23;;;;;;;;;;;;;;;;;;5020556;28;19928;-46
2021/10/02 11:31:48;;;;;;;;;;;;;;;;;;5021472;28;19983;-48
2021/10/02 11:34:16;;;;;;;;;;;;;;;22.69;nan;100696.13;5025490;28;19982;-44
2021/10/02 11:36:42;;;;;;;;;;;;;;;22.70;nan;100708.69;5013494;28;20003;-46
2021/10/02 11:39:08;;;;;;;;;;;;;;;;;;5028654;28;19982;-51
2021/10/02 11:41:33;;;;;;;;;;;;;;;;;;5032478;28;19913;-45
2021/10/02 11:43:58;;;;;;;;;;;;;;;22.71;nan;100694.16;5029051;28;19971;-48
2021/10/02 11:46:25;;;;;;;;;;;;;;;22.72;nan;100685.03;5014088;28;19917;-45
2021/10/02 11:48:51;;;;;;;;;;;;;;;22.72;nan;100685.03;5023231;28;19928;-44
2021/10/02 11:51:16;;;;;;;;;;;;;;;;;;5011372;28;19914;-46
2021/10/02 11:53:46;;;;;;;;;;;;;;;22.72;nan;100674.19;5028637;28;19917;-45
2021/10/02 11:56:11;;;;;;;;;;;;;;;;;;5021145;28;19918;-45
2021/10/02 11:58:36;;;;;;;;;;;;;;;;;;5010523;28;19921;-47
2021/10/02 12:01:02;;;;;;;;;;;;;;;;;;5010868;28;20411;-48
2021/10/02 12:03:27;;;;;;;;;;;;;;;;;;5012883;28;20006;-47
2021/10/02 12:05:52;;;;;;;;;;;;;;;;;;5022756;28;19921;-45
2021/10/02 12:08:17;;;;;;;;;;;;;;;;;;5010684;28;19917;-47
2021/10/02 12:11:01;;;;;;;;;;;;;;;22.77;nan;100649.38;5014797;28;20012;-46
2021/10/02 12:13:27;;;;;;;;;;;;;;;;;;5025942;28;20009;-48
2021/10/02 12:16:01;;;;;;;;;;;;;;;22.78;nan;100635.69;5022875;28;20551;-45
2021/10/02 12:18:26;;;;;;;;;;;;;;;;;;5026307;28;19925;-44
2021/10/02 12:20:51;;;;;;;;;;;;;;;;;;5012393;28;19917;-43
2021/10/02 12:23:17;;;;;;;;;;;;;;;;;;5014465;28;19925;-44
2021/10/02 12:25:42;;;;;;;;;;;;;;;22.80;nan;100622.00;5016064;28;19917;-46
2021/10/02 12:28:07;;;;;;;;;;;;;;;;;;5012331;28;19917;-44
2021/10/02 12:30:33;;;;;;;;;;;;;;;22.81;nan;100623.69;5012403;28;20565;-42
2021/10/02 12:32:58;;;;;;;;;;;;;;;;;;5023350;28;19982;-45
2021/10/02 12:35:30;;;;;;;;;;;;;;;;;;5031872;28;19917;-42
2021/10/02 12:37:58;;;;;;;;;;;;;;;22.81;nan;100602.88;5030366;28;19925;-46
2021/10/02 12:40:24;;;;;;;;;;;;;;;;;;5031293;28;19974;-43
2021/10/02 12:42:49;;;;;;;;;;;;;;;;;;5031816;28;19921;-45
2021/10/02 12:45:14;;;;;;;;;;;;;;;;;;5031683;28;19913;-42
2021/10/02 12:47:39;;;;;;;;;;;;;;;;;;5031730;28;19925;-43
2021/10/02 12:50:04;;;;;;;;;;;;;;;;;;5031456;28;19913;-44
2021/10/02 12:52:29;;;;;;;;;;;;;;;;;;5031781;28;19957;-46
2021/10/02 12:54:56;;;;;;;;;;;;;;;22.86;nan;100597.88;5031915;28;19923;-43
2021/10/02 12:57:37;;;;;;;;;;;;;;;22.85;nan;100585.31;5021871;28;20318;-44
2021/10/02 13:00:02;;;;;;;;;;;;;;;;;;5011999;28;19918;-43
2021/10/02 13:02:28;;;;;;;;;;;;;;;22.87;nan;100563.50;5010629;28;19920;-48
2021/10/02 13:04:53;;;;;;;;;;;;;;;;;;5029476;28;19918;-47
2021/10/02 13:07:18;;;;;;;;;;;;;;;;;;5031052;28;19917;-45
2021/10/02 13:09:43;;;;;;;;;;;;;;;;;;5031517;28;19971;-44
2021/10/02 13:12:09;;;;;;;;;;;;;;;;;;5019469;28;19929;-43
2021/10/02 13:14:34;;;;;;;;;;;;;;;;;;5027233;28;19917;-45
2021/10/02 13:17:03;;;;;;;;;;;;;;;22.88;nan;100576.91;5002487;28;19924;-45
2021/10/02 13:19:28;;;;;;;;;;;;;;;;;;5024140;28;20291;-42
2021/10/02 13:21:53;;;;;;;;;;;;;;;;;;5029577;28;19928;-44
2021/10/02 13:24:18;;;;;;;;;;;;;;;;;;5002965;28;20404;-43
2021/10/02 13:26:43;;;;;;;;;;;;;;;;;;5026951;28;19913;-44
2021/10/02 13:29:09;;;;;;;;;;;;;;;;;;5029848;28;19924;-43
2021/10/02 13:31:34;;;;;;;;;;;;;;;;;;5023708;28;20026;-44
2021/10/02 13:34:07;;;;;;;;;;;;;;;22.92;nan;100546.84;5017972;28;19917;-42
2021/10/02 13:36:33;;;;;;;;;;;;;;;;;;5012583;28;19913;-45
2021/10/02 13:38:58;;;;;;;;;;;;;;;;;;5010386;28;19923;-43
2021/10/02 13:41:24;;;;;;;;;;;;;;;;;;5009960;28;19921;-43
2021/10/02 13:43:49;;;;;;;;;;;;;;;;;;5014122;28;19921;-47
2021/10/02 13:46:23;;;;;;;;;;;;;;;22.94;nan;100536.72;5015311;28;19936;-44
2021/10/02 13:48:48;;;;;;;;;;;;;;;;;;5023937;28;19996;-47
2021/10/02 13:51:13;;;;;;;;;;;;;;;;;;5026498;28;20005;-42
2021/10/02 13:53:38;;;;;;;;;;;;;;;;;;5032689;28;19933;-46
2021/10/02 13:56:04;;;;;;;;;;;;;;;;;;5028791;28;19925;-44
2021/10/02 13:58:29;;;;;;;;;;;;;;;;;;5011402;28;19926;-46
2021/10/02 14:00:54;;;;;;;;;;;;;;;22.98;nan;100495.63;5014355;28;19917;-44
2021/10/02 14:03:20;;;;;;;;;;;;;;;22.98;nan;100511.03;5025971;28;19925;-42
2021/10/02 14:05:45;;;;;;;;;;;;;;;;;;5019260;28;19921;-43
2021/10/02 14:08:10;;;;;;;;;;;;;;;;;;5031813;28;19928;-43
2021/10/02 14:10:35;;;;;;;;;;;;;;;23.00;nan;100492.75;5014975;28;19921;-44
2021/10/02 14:13:08;;;;;;;;;;;;;;;23.00;nan;100488.19;5028290;28;19917;-43
2021/10/02 14:15:33;;;;;;;;;;;;;;;23.00;nan;100471.91;5033210;28;19929;-47
2021/10/02 14:17:58;;;;;;;;;;;;;;;;;;5034010;28;19913;-44
2021/10/02 14:20:24;;;;;;;;;;;;;;;23.03;nan;100478.91;5008740;28;20035;-45
2021/10/02 14:22:50;;;;;;;;;;;;;;;;;;5044345;28;19956;-45
2021/10/02 14:25:15;;;;;;;;;;;;;;;;;;5034389;28;19913;-45
2021/10/02 14:27:40;;;;;;;;;;;;;;;;;;5034005;28;20401;-43
2021/10/02 14:30:05;;;;;;;;;;;;;;;;;;5033210;28;19917;-42
2021/10/02 14:32:30;;;;;;;;;;;;;;;;;;5010138;28;20651;-44
2021/10/02 14:34:56;;;;;;;;;;;;;;;23.04;nan;100456.22;5024711;28;19921;-45
2021/10/02 14:37:21;;;;;;;;;;;;;;;;;;5025650;28;19924;-45
2021/10/02 14:39:48;;;;;;;;;;;;;;;23.04;nan;100459.78;5011149;28;20008;-43
2021/10/02 14:42:16;;;;;;;;;;;;;;;23.05;nan;100458.78;5032341;28;19919;-44
2021/10/02 14:44:42;;;;;;;;;;;;;;;23.04;nan;100451.63;5017892;28;19959;-45
2021/10/02 14:47:07;;;;;;;;;;;;;;;;;;5025135;28;20348;-41
2021/10/02 14:49:32;;;;;;;;;;;;;;;23.20;nan;100442.91;5024322;28;19924;-45
2021/10/02 14:51:58;;;;;;;;;;;;;;;;;;5025881;28;20606;-43
2021/10/02 14:54:23;;;;;;;;;;;;;;;23.31;nan;100445.41;5015517;28;19917;-37
2021/10/02 14:56:49;;;;;;;;;;;;;;;;;;5021158;28;20342;-38
2021/10/02 14:59:16;;;;;;;;;;;;;;;23.35;nan;100459.50;5027112;28;19933;-40
2021/10/02 15:01:41;;;;;;;;;;;;;;;;;;5028608;28;19913;-39
2021/10/02 15:04:09;;;;;;;;;;;;;;;;;;5017701;28;20422;-39
2021/10/02 15:06:34;;;;;;;;;;;;;;;;;;4996148;28;19913;-39
2021/10/02 15:08:59;;;;;;;;;;;;;;;;;;5012287;28;19924;-41
2021/10/02 15:11:24;;;;;;;;;;;;;;;;;;5029244;28;19913;-38
2021/10/02 15:13:50;;;;;;;;;;;;;;;23.33;nan;100465.09;5032709;28;19921;-38
2021/10/02 15:16:18;;;;;;;;;;;;;;;23.34;nan;100464.06;5032174;28;19997;-38
2021/10/02 15:18:44;;;;;;;;;;;;;;;;;;5015323;28;20290;-38
2021/10/02 15:21:09;;;;;;;;;;;;;;;;;;5032558;28;20447;-39
2021/10/02 15:23:39;;;;;;;;;;;;;;;23.34;nan;100469.50;5015509;28;19917;-40
2021/10/02 15:26:06;;;;;;;;;;;;;;;;;;5031998;28;20015;-38
2021/10/02 15:28:31;;;;;;;;;;;;;;;;;;5013492;28;20534;-39
2021/10/02 15:30:56;;;;;;;;;;;;;;;;;;5021851;28;19914;-39
2021/10/02 15:33:22;;;;;;;;;;;;;;;23.32;nan;100449.81;5032723;28;19940;-38
2021/10/02 15:35:50;;;;;;;;;;;;;;;23.32;nan;100449.81;5032840;28;19959;-38
2021/10/02 15:38:16;;;;;;;;;;;;;;;;;;5032710;28;19913;-38
2021/10/02 15:40:41;;;;;;;;;;;;;;;23.30;nan;100435.53;5033062;28;19917;-38
2021/10/02 15:43:08;;;;;;;;;;;;;;;23.30;nan;100440.97;5032804;28;19913;-40
2021/10/02 15:45:36;;;;;;;;;;;;;;;23.30;nan;100457.25;5032783;28;20526;-39
2021/10/02 15:48:01;;;;;;;;;;;;;;;;;;5032916;28;19920;-39
2021/10/02 15:50:27;;;;;;;;;;;;;;;;;;5032095;28;19921;-39
2021/10/02 15:52:54;;;;;;;;;;;;;;;;;;5029635;28;19940;-38